createdAt,value
2022-11-17T00:01:39.457Z,2.57
2022-11-17T00:07:07.040Z,2.43
2022-11-17T00:12:51.834Z,2.60
2022-11-17T00:18:35.383Z,2.83
2022-11-17T00:24:02.568Z,2.50
2022-11-17T00:29:31.398Z,2.60
2022-11-17T00:35:01.044Z,2.77
2022-11-17T00:40:26.208Z,2.23
2022-11-17T00:45:49.724Z,2.20
2022-11-17T00:51:15.956Z,2.13
2022-11-17T00:56:40.866Z,2.03
2022-11-17T01:02:03.845Z,2.30
2022-11-17T01:07:31.899Z,2.03
2022-11-17T01:12:58.220Z,1.60
2022-11-17T01:18:25.355Z,1.70
2022-11-17T01:23:57.643Z,1.70
2022-11-17T01:29:20.526Z,2.10
2022-11-17T01:34:59.997Z,1.83
2022-11-17T01:40:28.226Z,1.50
2022-11-17T01:46:07.061Z,1.90
2022-11-17T01:51:41.493Z,1.90
2022-11-17T01:57:19.631Z,1.50
2022-11-17T02:02:46.050Z,1.80
2022-11-17T02:08:14.441Z,1.53
2022-11-17T02:13:42.537Z,1.67
2022-11-17T02:19:16.068Z,1.80
2022-11-17T02:25:08.272Z,1.83
2022-11-17T02:30:44.233Z,2.20
2022-11-17T02:36:12.960Z,2.50
2022-11-17T02:41:51.873Z,2.30
2022-11-17T02:47:32.984Z,2.30
2022-11-17T02:52:57.547Z,2.57
2022-11-17T02:58:21.714Z,2.30
2022-11-17T03:04:02.673Z,2.40
2022-11-17T03:09:45.588Z,2.30
2022-11-17T03:15:20.104Z,2.00
2022-11-17T03:21:13.311Z,2.00
2022-11-17T03:26:56.495Z,2.10
2022-11-17T03:32:41.308Z,2.37
2022-11-17T03:38:24.215Z,2.37
2022-11-17T03:44:06.414Z,2.20
2022-11-17T03:49:37.492Z,2.10
2022-11-17T03:55:27.613Z,2.20
2022-11-17T04:00:58.257Z,2.17
2022-11-17T04:06:24.643Z,2.17
2022-11-17T04:12:13.634Z,2.10
2022-11-17T04:17:39.421Z,2.50
2022-11-17T04:23:12.934Z,2.10
2022-11-17T04:28:43.894Z,2.13
2022-11-17T04:34:16.065Z,2.17
2022-11-17T04:39:43.704Z,1.97
2022-11-17T04:45:12.208Z,2.23
2022-11-17T04:56:24.954Z,2.47
2022-11-17T05:02:08.563Z,2.40
2022-11-17T05:07:37.005Z,2.43
2022-11-17T05:13:30.423Z,2.50
2022-11-17T05:19:14.556Z,2.50
2022-11-17T05:24:41.223Z,2.87
2022-11-17T05:30:19.404Z,2.20
2022-11-17T05:35:49.526Z,2.43
2022-11-17T05:41:17.928Z,1.80
2022-11-17T05:46:48.966Z,2.70
2022-11-17T05:52:13.395Z,2.83
2022-11-17T05:57:37.768Z,2.23
2022-11-17T06:03:07.029Z,2.47
2022-11-17T06:08:37.736Z,2.80
2022-11-17T06:14:11.438Z,2.63
2022-11-17T06:19:43.728Z,2.67
2022-11-17T06:25:23.028Z,2.60
2022-11-17T06:30:49.474Z,3.03
2022-11-17T06:36:21.816Z,2.57
2022-11-17T06:41:47.320Z,2.37
2022-11-17T06:47:13.084Z,2.47
2022-11-17T06:52:44.609Z,3.10
2022-11-17T06:58:24.825Z,2.60
2022-11-17T07:04:05.274Z,2.90
2022-11-17T07:09:28.101Z,2.53
2022-11-17T07:15:01.519Z,2.70
2022-11-17T07:20:28.767Z,3.00
2022-11-17T07:26:03.510Z,3.00
2022-11-17T07:31:44.538Z,3.20
2022-11-17T07:37:23.371Z,2.87
2022-11-17T07:42:53.654Z,2.70
2022-11-17T07:48:25.643Z,2.70
2022-11-17T07:54:04.820Z,2.97
2022-11-17T07:59:33.125Z,2.50
2022-11-17T08:04:59.774Z,2.90
2022-11-17T08:10:27.971Z,2.60
2022-11-17T08:16:15.014Z,2.37
2022-11-17T08:21:44.663Z,2.10
2022-11-17T08:27:12.223Z,2.30
2022-11-17T08:32:36.614Z,2.60
2022-11-17T08:38:06.112Z,2.70
2022-11-17T08:43:30.592Z,2.67
2022-11-17T08:49:04.267Z,2.67
2022-11-17T08:54:36.904Z,2.63
2022-11-17T09:00:06.197Z,2.57
2022-11-17T09:05:43.309Z,3.00
2022-11-17T09:11:26.346Z,2.97
2022-11-17T09:17:02.052Z,2.90
2022-11-17T09:22:25.484Z,2.67
2022-11-17T09:28:03.516Z,2.57
2022-11-17T09:33:27.097Z,2.70
2022-11-17T09:38:52.163Z,2.80
2022-11-17T09:44:54.732Z,2.90
2022-11-17T09:50:38.750Z,3.10
2022-11-17T09:56:10.087Z,3.07
2022-11-17T10:01:34.994Z,3.17
2022-11-17T10:07:05.476Z,3.43
2022-11-17T10:12:45.728Z,3.03
2022-11-17T10:18:22.608Z,3.37
2022-11-17T10:24:01.174Z,3.10
2022-11-17T10:29:28.940Z,3.20
2022-11-17T10:34:59.025Z,3.10
2022-11-17T10:40:26.442Z,3.20
2022-11-17T10:46:17.524Z,2.90
2022-11-17T10:52:22.911Z,3.57
2022-11-17T10:57:57.437Z,3.00
2022-11-17T11:03:34.820Z,3.33
2022-11-17T11:09:07.559Z,3.50
2022-11-17T11:14:57.191Z,3.47
2022-11-17T11:20:22.840Z,3.53
2022-11-17T11:25:53.285Z,3.67
2022-11-17T11:31:30.709Z,3.13
2022-11-17T11:37:12.062Z,3.20
2022-11-17T11:42:57.085Z,3.70
2022-11-17T11:48:41.431Z,3.53
2022-11-17T11:54:18.368Z,4.27
2022-11-17T12:00:03.769Z,3.30
2022-11-17T12:05:38.488Z,3.73
2022-11-17T12:17:27.011Z,4.23
2022-11-17T12:23:06.619Z,4.20
2022-11-17T12:28:51.448Z,3.70
2022-11-17T12:34:47.139Z,3.67
2022-11-17T12:40:36.481Z,3.50
2022-11-17T12:46:30.420Z,3.57
2022-11-17T12:52:11.454Z,3.30
2022-11-17T12:57:43.318Z,3.67
2022-11-17T13:03:19.005Z,4.30
2022-11-17T13:09:05.171Z,3.33
2022-11-17T13:14:32.340Z,3.80
2022-11-17T13:20:12.647Z,3.97
2022-11-17T13:25:44.303Z,3.63
2022-11-17T13:31:17.007Z,3.60
2022-11-17T13:37:12.960Z,3.50
2022-11-17T13:42:46.975Z,3.20
2022-11-17T13:54:26.943Z,3.67
2022-11-17T14:00:04.941Z,3.97
2022-11-17T14:05:31.475Z,4.07
2022-11-17T14:11:16.266Z,4.10
2022-11-17T14:16:52.005Z,3.53
2022-11-17T14:22:31.967Z,3.70
2022-11-17T14:27:58.962Z,4.03
2022-11-17T14:33:29.857Z,4.23
2022-11-17T14:38:59.289Z,3.77
2022-11-17T14:44:24.824Z,4.10
2022-11-17T14:49:58.755Z,4.80
2022-11-17T14:55:56.196Z,4.00
2022-11-17T15:01:34.933Z,3.80
2022-11-17T15:07:06.404Z,4.33
2022-11-17T15:12:41.705Z,4.83
2022-11-17T15:18:13.954Z,3.60
2022-11-17T15:23:42.779Z,3.60
2022-11-17T15:29:20.829Z,3.30
2022-11-17T15:34:52.572Z,4.10
2022-11-17T15:40:24.856Z,3.50
2022-11-17T15:45:52.746Z,3.73
2022-11-17T15:51:23.071Z,3.67
2022-11-17T15:56:58.687Z,3.83
2022-11-17T16:02:37.044Z,3.83
2022-11-17T16:08:00.790Z,3.77
2022-11-17T16:13:30.973Z,4.00
2022-11-17T16:18:56.583Z,3.70
2022-11-17T16:24:40.359Z,3.63
2022-11-17T16:30:23.981Z,3.93
2022-11-17T16:35:51.987Z,3.80
2022-11-17T16:41:35.342Z,4.00
2022-11-17T16:47:09.391Z,4.40
2022-11-17T16:52:44.197Z,4.13
2022-11-17T16:58:11.811Z,4.27
2022-11-17T17:03:54.452Z,4.33
2022-11-17T17:09:27.854Z,4.17
2022-11-17T17:15:11.896Z,4.50
2022-11-17T17:21:09.990Z,4.37
2022-11-17T17:26:42.050Z,4.53
2022-11-17T17:38:11.541Z,4.90
2022-11-17T17:43:41.422Z,4.73
2022-11-17T17:49:10.687Z,4.40
2022-11-17T17:55:07.136Z,4.40
2022-11-17T18:00:34.003Z,4.17
2022-11-17T18:06:11.666Z,4.60
2022-11-17T18:11:37.370Z,4.73
2022-11-17T18:17:19.499Z,4.07
2022-11-17T18:22:47.037Z,4.70
2022-11-17T18:28:22.678Z,4.33
2022-11-17T18:34:02.472Z,4.30
2022-11-17T18:39:30.231Z,4.50
2022-11-17T18:45:09.582Z,5.00
2022-11-17T18:51:12.289Z,5.17
2022-11-17T18:56:36.617Z,5.00
2022-11-17T19:02:12.340Z,5.10
2022-11-17T19:08:06.882Z,4.90
2022-11-17T19:13:57.404Z,5.67
2022-11-17T19:19:28.023Z,4.77
2022-11-17T19:24:59.196Z,4.90
2022-11-17T19:30:24.918Z,4.77
2022-11-17T19:36:27.524Z,5.27
2022-11-17T19:42:01.785Z,4.30
2022-11-17T19:47:45.523Z,4.97
2022-11-17T19:53:16.479Z,5.03
2022-11-17T19:58:50.415Z,5.17
2022-11-17T20:04:14.544Z,6.00
2022-11-17T20:09:56.253Z,4.90
2022-11-17T20:27:38.229Z,5.20
2022-11-17T20:33:22.931Z,5.33
2022-11-17T20:38:58.983Z,5.77
2022-11-17T20:44:26.490Z,6.10
2022-11-17T20:49:51.019Z,5.10
2022-11-17T20:55:29.371Z,4.83
2022-11-17T21:01:00.656Z,4.90
2022-11-17T21:06:29.730Z,5.20
2022-11-17T21:12:03.668Z,5.20
2022-11-17T21:17:44.804Z,5.40
2022-11-17T21:23:08.049Z,4.93
2022-11-17T21:28:38.637Z,5.50
2022-11-17T21:34:04.427Z,5.60
2022-11-17T21:39:40.089Z,4.90
2022-11-17T21:45:09.697Z,5.53
2022-11-17T21:50:44.316Z,4.80
2022-11-17T21:56:15.571Z,5.00
2022-11-17T22:01:43.115Z,5.20
2022-11-17T22:07:12.188Z,5.33
2022-11-17T22:12:36.513Z,5.57
2022-11-17T22:18:11.536Z,5.80
2022-11-17T22:24:09.588Z,6.60
2022-11-17T22:29:37.840Z,7.27
2022-11-17T22:35:02.732Z,7.80
2022-11-17T22:40:29.764Z,7.30
2022-11-17T22:46:01.396Z,7.30
2022-11-17T22:51:50.390Z,6.83
2022-11-17T22:57:16.551Z,8.53
2022-11-17T23:02:42.733Z,7.70
2022-11-17T23:08:10.157Z,7.90
2022-11-17T23:13:53.401Z,8.70
2022-11-17T23:19:25.274Z,8.60
2022-11-17T23:30:45.169Z,8.80
2022-11-17T23:36:23.039Z,9.80
2022-11-17T23:42:07.141Z,8.97
2022-11-17T23:47:39.157Z,9.57
2022-11-17T23:53:07.637Z,9.50
2022-11-17T23:58:43.777Z,10.03
